sensor_id;sensor_type;location;lat;lon;timestamp;P1;durP1;ratioP1;P2;durP2;ratioP2
40991;SDS011;29633;49.168;9.848;2023-09-19T00:01:41;0.30;;;0.30;;
40991;SDS011;29633;49.168;9.848;2023-09-19T00:04:10;0.45;;;0.30;;
40991;SDS011;29633;49.168;9.848;2023-09-19T00:06:37;0.73;;;0.40;;
40991;SDS011;29633;49.168;9.848;2023-09-19T00:09:04;0.50;;;0.25;;
40991;SDS011;29633;49.168;9.848;2023-09-19T00:11:31;0.35;;;0.30;;
40991;SDS011;29633;49.168;9.848;2023-09-19T00:13:57;0.25;;;0.25;;
40991;SDS011;29633;49.168;9.848;2023-09-19T00:16:26;0.57;;;0.35;;
40991;SDS011;29633;49.168;9.848;2023-09-19T00:18:52;0.40;;;0.30;;
40991;SDS011;29633;49.168;9.848;2023-09-19T00:21:17;1.13;;;0.40;;
40991;SDS011;29633;49.168;9.848;2023-09-19T00:23:44;0.90;;;0.40;;
40991;SDS011;29633;49.168;9.848;2023-09-19T00:26:10;2.55;;;0.30;;
40991;SDS011;29633;49.168;9.848;2023-09-19T00:28:36;0.30;;;0.20;;
40991;SDS011;29633;49.168;9.848;2023-09-19T00:31:02;1.55;;;0.38;;
40991;SDS011;29633;49.168;9.848;2023-09-19T00:33:28;0.43;;;0.30;;
40991;SDS011;29633;49.168;9.848;2023-09-19T00:35:56;0.47;;;0.30;;
40991;SDS011;29633;49.168;9.848;2023-09-19T00:38:22;0.50;;;0.30;;
40991;SDS011;29633;49.168;9.848;2023-09-19T00:40:52;0.70;;;0.40;;
40991;SDS011;29633;49.168;9.848;2023-09-19T00:43:19;1.55;;;0.30;;
40991;SDS011;29633;49.168;9.848;2023-09-19T00:45:49;0.30;;;0.30;;
40991;SDS011;29633;49.168;9.848;2023-09-19T00:48:19;0.43;;;0.35;;
40991;SDS011;29633;49.168;9.848;2023-09-19T00:50:46;0.50;;;0.22;;
40991;SDS011;29633;49.168;9.848;2023-09-19T00:53:15;0.68;;;0.30;;
40991;SDS011;29633;49.168;9.848;2023-09-19T00:55:45;0.77;;;0.30;;
40991;SDS011;29633;49.168;9.848;2023-09-19T00:58:13;0.65;;;0.30;;
40991;SDS011;29633;49.168;9.848;2023-09-19T01:00:39;0.43;;;0.30;;
40991;SDS011;29633;49.168;9.848;2023-09-19T01:03:05;0.30;;;0.30;;
40991;SDS011;29633;49.168;9.848;2023-09-19T01:05:33;0.95;;;0.30;;
40991;SDS011;29633;49.168;9.848;2023-09-19T01:07:59;0.45;;;0.30;;
40991;SDS011;29633;49.168;9.848;2023-09-19T01:10:25;0.60;;;0.30;;
40991;SDS011;29633;49.168;9.848;2023-09-19T01:16:11;0.93;;;0.40;;
40991;SDS011;29633;49.168;9.848;2023-09-19T01:19:07;0.88;;;0.40;;
40991;SDS011;29633;49.168;9.848;2023-09-19T01:30:35;0.82;;;0.40;;
40991;SDS011;29633;49.168;9.848;2023-09-19T01:33:08;0.70;;;0.40;;
40991;SDS011;29633;49.168;9.848;2023-09-19T01:35:37;2.15;;;0.50;;
40991;SDS011;29633;49.168;9.848;2023-09-19T01:38:04;2.40;;;0.50;;
40991;SDS011;29633;49.168;9.848;2023-09-19T01:40:43;0.77;;;0.40;;
40991;SDS011;29633;49.168;9.848;2023-09-19T01:43:27;0.68;;;0.32;;
40991;SDS011;29633;49.168;9.848;2023-09-19T01:54:26;1.33;;;0.50;;
40991;SDS011;29633;49.168;9.848;2023-09-19T01:57:03;0.70;;;0.40;;
40991;SDS011;29633;49.168;9.848;2023-09-19T01:59:57;0.80;;;0.40;;
40991;SDS011;29633;49.168;9.848;2023-09-19T02:02:34;1.27;;;0.40;;
40991;SDS011;29633;49.168;9.848;2023-09-19T02:05:03;1.48;;;0.40;;
40991;SDS011;29633;49.168;9.848;2023-09-19T02:07:30;1.00;;;0.50;;
40991;SDS011;29633;49.168;9.848;2023-09-19T02:09:57;0.90;;;0.50;;
40991;SDS011;29633;49.168;9.848;2023-09-19T02:12:25;0.70;;;0.40;;
40991;SDS011;29633;49.168;9.848;2023-09-19T02:14:52;1.83;;;0.40;;
40991;SDS011;29633;49.168;9.848;2023-09-19T02:17:18;0.73;;;0.43;;
40991;SDS011;29633;49.168;9.848;2023-09-19T02:19:44;1.50;;;0.50;;
40991;SDS011;29633;49.168;9.848;2023-09-19T02:22:10;0.77;;;0.32;;
40991;SDS011;29633;49.168;9.848;2023-09-19T02:24:36;0.77;;;0.40;;
40991;SDS011;29633;49.168;9.848;2023-09-19T02:27:03;0.93;;;0.40;;
40991;SDS011;29633;49.168;9.848;2023-09-19T02:29:30;0.80;;;0.40;;
40991;SDS011;29633;49.168;9.848;2023-09-19T02:31:56;0.60;;;0.40;;
40991;SDS011;29633;49.168;9.848;2023-09-19T02:34:22;0.63;;;0.40;;
40991;SDS011;29633;49.168;9.848;2023-09-19T02:36:48;1.05;;;0.50;;
40991;SDS011;29633;49.168;9.848;2023-09-19T02:39:14;0.90;;;0.45;;
40991;SDS011;29633;49.168;9.848;2023-09-19T02:41:40;0.68;;;0.45;;
40991;SDS011;29633;49.168;9.848;2023-09-19T02:44:06;0.50;;;0.40;;
40991;SDS011;29633;49.168;9.848;2023-09-19T02:46:36;0.90;;;0.40;;
40991;SDS011;29633;49.168;9.848;2023-09-19T02:49:02;2.15;;;0.40;;
40991;SDS011;29633;49.168;9.848;2023-09-19T02:51:31;0.40;;;0.30;;
40991;SDS011;29633;49.168;9.848;2023-09-19T02:54:01;2.25;;;0.55;;
40991;SDS011;29633;49.168;9.848;2023-09-19T02:56:28;1.85;;;0.38;;
40991;SDS011;29633;49.168;9.848;2023-09-19T02:58:55;0.82;;;0.40;;
40991;SDS011;29633;49.168;9.848;2023-09-19T03:01:21;0.63;;;0.40;;
40991;SDS011;29633;49.168;9.848;2023-09-19T03:03:47;0.73;;;0.40;;
40991;SDS011;29633;49.168;9.848;2023-09-19T03:06:13;0.68;;;0.40;;
40991;SDS011;29633;49.168;9.848;2023-09-19T03:08:39;0.82;;;0.40;;
40991;SDS011;29633;49.168;9.848;2023-09-19T03:11:07;0.82;;;0.40;;
40991;SDS011;29633;49.168;9.848;2023-09-19T03:13:36;0.68;;;0.40;;
40991;SDS011;29633;49.168;9.848;2023-09-19T03:16:03;0.93;;;0.40;;
40991;SDS011;29633;49.168;9.848;2023-09-19T03:18:31;0.93;;;0.30;;
40991;SDS011;29633;49.168;9.848;2023-09-19T03:20:59;0.55;;;0.32;;
40991;SDS011;29633;49.168;9.848;2023-09-19T03:23:25;0.70;;;0.50;;
40991;SDS011;29633;49.168;9.848;2023-09-19T03:25:52;0.80;;;0.40;;
40991;SDS011;29633;49.168;9.848;2023-09-19T03:28:19;1.17;;;0.60;;
40991;SDS011;29633;49.168;9.848;2023-09-19T03:30:56;0.70;;;0.50;;
40991;SDS011;29633;49.168;9.848;2023-09-19T03:33:30;0.50;;;0.40;;
40991;SDS011;29633;49.168;9.848;2023-09-19T03:35:59;0.70;;;0.40;;
40991;SDS011;29633;49.168;9.848;2023-09-19T03:38:29;0.82;;;0.30;;
40991;SDS011;29633;49.168;9.848;2023-09-19T03:40:56;0.60;;;0.40;;
40991;SDS011;29633;49.168;9.848;2023-09-19T03:43:22;0.82;;;0.30;;
40991;SDS011;29633;49.168;9.848;2023-09-19T03:45:48;0.63;;;0.40;;
40991;SDS011;29633;49.168;9.848;2023-09-19T03:48:19;0.50;;;0.40;;
40991;SDS011;29633;49.168;9.848;2023-09-19T03:50:46;1.70;;;0.57;;
40991;SDS011;29633;49.168;9.848;2023-09-19T03:53:12;1.05;;;0.40;;
40991;SDS011;29633;49.168;9.848;2023-09-19T03:55:38;0.82;;;0.40;;
40991;SDS011;29633;49.168;9.848;2023-09-19T03:58:04;1.67;;;0.40;;
40991;SDS011;29633;49.168;9.848;2023-09-19T04:00:30;1.58;;;0.40;;
40991;SDS011;29633;49.168;9.848;2023-09-19T04:02:57;0.80;;;0.40;;
40991;SDS011;29633;49.168;9.848;2023-09-19T04:05:23;2.63;;;0.50;;
40991;SDS011;29633;49.168;9.848;2023-09-19T04:07:49;3.30;;;0.60;;
40991;SDS011;29633;49.168;9.848;2023-09-19T04:10:18;0.90;;;0.50;;
40991;SDS011;29633;49.168;9.848;2023-09-19T04:12:54;1.42;;;0.50;;
40991;SDS011;29633;49.168;9.848;2023-09-19T04:15:21;2.60;;;0.40;;
40991;SDS011;29633;49.168;9.848;2023-09-19T04:17:48;0.70;;;0.40;;
40991;SDS011;29633;49.168;9.848;2023-09-19T04:20:15;0.50;;;0.40;;
40991;SDS011;29633;49.168;9.848;2023-09-19T04:22:43;1.73;;;0.45;;
40991;SDS011;29633;49.168;9.848;2023-09-19T04:25:08;0.93;;;0.50;;
40991;SDS011;29633;49.168;9.848;2023-09-19T04:27:35;1.38;;;0.50;;
40991;SDS011;29633;49.168;9.848;2023-09-19T04:30:00;0.73;;;0.40;;
40991;SDS011;29633;49.168;9.848;2023-09-19T04:32:29;0.82;;;0.50;;
40991;SDS011;29633;49.168;9.848;2023-09-19T04:34:57;0.90;;;0.40;;
40991;SDS011;29633;49.168;9.848;2023-09-19T04:37:25;0.70;;;0.57;;
40991;SDS011;29633;49.168;9.848;2023-09-19T04:39:51;0.60;;;0.38;;
40991;SDS011;29633;49.168;9.848;2023-09-19T04:42:16;1.30;;;0.60;;
40991;SDS011;29633;49.168;9.848;2023-09-19T04:44:42;0.90;;;0.43;;
40991;SDS011;29633;49.168;9.848;2023-09-19T04:47:08;0.68;;;0.50;;
40991;SDS011;29633;49.168;9.848;2023-09-19T04:49:35;0.70;;;0.50;;
40991;SDS011;29633;49.168;9.848;2023-09-19T04:52:01;0.65;;;0.40;;
40991;SDS011;29633;49.168;9.848;2023-09-19T04:54:26;0.50;;;0.40;;
40991;SDS011;29633;49.168;9.848;2023-09-19T04:56:52;2.03;;;0.45;;
40991;SDS011;29633;49.168;9.848;2023-09-19T04:59:18;2.50;;;0.52;;
40991;SDS011;29633;49.168;9.848;2023-09-19T05:01:43;1.38;;;0.50;;
40991;SDS011;29633;49.168;9.848;2023-09-19T05:04:09;0.65;;;0.43;;
40991;SDS011;29633;49.168;9.848;2023-09-19T05:06:35;0.60;;;0.50;;
40991;SDS011;29633;49.168;9.848;2023-09-19T05:09:00;0.47;;;0.47;;
40991;SDS011;29633;49.168;9.848;2023-09-19T05:11:26;0.68;;;0.47;;
40991;SDS011;29633;49.168;9.848;2023-09-19T05:13:55;2.28;;;0.57;;
40991;SDS011;29633;49.168;9.848;2023-09-19T05:16:21;1.17;;;0.47;;
40991;SDS011;29633;49.168;9.848;2023-09-19T05:18:47;1.23;;;0.50;;
40991;SDS011;29633;49.168;9.848;2023-09-19T05:21:13;1.05;;;0.50;;
40991;SDS011;29633;49.168;9.848;2023-09-19T05:23:38;0.52;;;0.43;;
40991;SDS011;29633;49.168;9.848;2023-09-19T05:26:04;0.77;;;0.43;;
40991;SDS011;29633;49.168;9.848;2023-09-19T05:28:30;2.97;;;0.60;;
40991;SDS011;29633;49.168;9.848;2023-09-19T05:30:57;0.70;;;0.47;;
40991;SDS011;29633;49.168;9.848;2023-09-19T05:33:28;1.13;;;0.55;;
40991;SDS011;29633;49.168;9.848;2023-09-19T05:35:56;0.70;;;0.55;;
40991;SDS011;29633;49.168;9.848;2023-09-19T05:38:21;1.00;;;0.65;;
40991;SDS011;29633;49.168;9.848;2023-09-19T05:40:47;2.15;;;0.68;;
40991;SDS011;29633;49.168;9.848;2023-09-19T05:43:13;2.33;;;0.68;;
40991;SDS011;29633;49.168;9.848;2023-09-19T05:45:39;1.13;;;0.60;;
40991;SDS011;29633;49.168;9.848;2023-09-19T05:48:09;2.47;;;0.50;;
40991;SDS011;29633;49.168;9.848;2023-09-19T05:50:38;0.95;;;0.65;;
40991;SDS011;29633;49.168;9.848;2023-09-19T05:53:04;0.65;;;0.57;;
40991;SDS011;29633;49.168;9.848;2023-09-19T05:55:31;0.93;;;0.60;;
40991;SDS011;29633;49.168;9.848;2023-09-19T05:57:57;1.00;;;0.68;;
40991;SDS011;29633;49.168;9.848;2023-09-19T06:00:24;1.95;;;0.75;;
40991;SDS011;29633;49.168;9.848;2023-09-19T06:05:19;1.15;;;0.73;;
40991;SDS011;29633;49.168;9.848;2023-09-19T06:07:46;1.05;;;0.60;;
40991;SDS011;29633;49.168;9.848;2023-09-19T06:10:12;0.75;;;0.70;;
40991;SDS011;29633;49.168;9.848;2023-09-19T06:12:39;1.00;;;0.60;;
40991;SDS011;29633;49.168;9.848;2023-09-19T06:15:10;2.45;;;0.70;;
40991;SDS011;29633;49.168;9.848;2023-09-19T06:17:50;0.90;;;0.65;;
40991;SDS011;29633;49.168;9.848;2023-09-19T06:20:22;1.08;;;0.70;;
40991;SDS011;29633;49.168;9.848;2023-09-19T06:22:49;1.23;;;0.70;;
40991;SDS011;29633;49.168;9.848;2023-09-19T06:25:15;1.80;;;0.80;;
40991;SDS011;29633;49.168;9.848;2023-09-19T06:30:18;0.80;;;0.60;;
40991;SDS011;29633;49.168;9.848;2023-09-19T06:32:45;1.92;;;0.75;;
40991;SDS011;29633;49.168;9.848;2023-09-19T06:35:12;1.52;;;0.88;;
40991;SDS011;29633;49.168;9.848;2023-09-19T06:37:39;1.38;;;0.73;;
40991;SDS011;29633;49.168;9.848;2023-09-19T06:42:42;2.08;;;0.80;;
40991;SDS011;29633;49.168;9.848;2023-09-19T06:45:10;1.10;;;0.80;;
40991;SDS011;29633;49.168;9.848;2023-09-19T06:47:44;1.40;;;0.80;;
40991;SDS011;29633;49.168;9.848;2023-09-19T06:50:17;1.25;;;0.90;;
40991;SDS011;29633;49.168;9.848;2023-09-19T06:52:45;2.05;;;0.88;;
40991;SDS011;29633;49.168;9.848;2023-09-19T06:55:18;1.67;;;0.90;;
40991;SDS011;29633;49.168;9.848;2023-09-19T06:57:48;2.97;;;0.85;;
40991;SDS011;29633;49.168;9.848;2023-09-19T07:00:14;2.63;;;0.80;;
40991;SDS011;29633;49.168;9.848;2023-09-19T07:05:33;0.77;;;0.60;;
40991;SDS011;29633;49.168;9.848;2023-09-19T07:08:04;2.45;;;0.80;;
40991;SDS011;29633;49.168;9.848;2023-09-19T07:10:37;1.00;;;0.75;;
40991;SDS011;29633;49.168;9.848;2023-09-19T07:13:06;2.08;;;1.00;;
40991;SDS011;29633;49.168;9.848;2023-09-19T07:15:35;1.23;;;0.85;;
40991;SDS011;29633;49.168;9.848;2023-09-19T07:18:04;1.65;;;0.85;;
40991;SDS011;29633;49.168;9.848;2023-09-19T07:20:31;1.30;;;1.02;;
40991;SDS011;29633;49.168;9.848;2023-09-19T07:22:59;1.25;;;1.02;;
40991;SDS011;29633;49.168;9.848;2023-09-19T07:25:25;1.50;;;1.05;;
40991;SDS011;29633;49.168;9.848;2023-09-19T07:27:55;1.33;;;1.00;;
40991;SDS011;29633;49.168;9.848;2023-09-19T07:30:25;1.60;;;1.10;;
40991;SDS011;29633;49.168;9.848;2023-09-19T07:32:52;1.33;;;0.90;;
40991;SDS011;29633;49.168;9.848;2023-09-19T07:35:18;1.20;;;1.10;;
40991;SDS011;29633;49.168;9.848;2023-09-19T07:37:45;1.20;;;1.05;;
40991;SDS011;29633;49.168;9.848;2023-09-19T07:40:15;1.20;;;0.93;;
40991;SDS011;29633;49.168;9.848;2023-09-19T07:42:41;1.38;;;1.13;;
40991;SDS011;29633;49.168;9.848;2023-09-19T07:45:09;1.35;;;0.90;;
40991;SDS011;29633;49.168;9.848;2023-09-19T07:47:40;1.75;;;1.05;;
40991;SDS011;29633;49.168;9.848;2023-09-19T07:50:10;1.60;;;0.90;;
40991;SDS011;29633;49.168;9.848;2023-09-19T07:52:36;1.48;;;0.95;;
40991;SDS011;29633;49.168;9.848;2023-09-19T07:55:04;0.82;;;0.68;;
40991;SDS011;29633;49.168;9.848;2023-09-19T08:00:02;0.90;;;0.70;;
40991;SDS011;29633;49.168;9.848;2023-09-19T08:02:30;1.77;;;0.80;;
40991;SDS011;29633;49.168;9.848;2023-09-19T08:05:00;2.45;;;0.75;;
40991;SDS011;29633;49.168;9.848;2023-09-19T08:07:25;1.35;;;0.70;;
40991;SDS011;29633;49.168;9.848;2023-09-19T08:09:53;1.38;;;0.70;;
40991;SDS011;29633;49.168;9.848;2023-09-19T08:12:19;3.80;;;0.80;;
40991;SDS011;29633;49.168;9.848;2023-09-19T08:14:49;0.93;;;0.70;;
40991;SDS011;29633;49.168;9.848;2023-09-19T08:17:15;2.15;;;0.70;;
40991;SDS011;29633;49.168;9.848;2023-09-19T08:19:41;1.55;;;0.77;;
40991;SDS011;29633;49.168;9.848;2023-09-19T08:22:10;1.60;;;0.70;;
40991;SDS011;29633;49.168;9.848;2023-09-19T08:24:36;0.88;;;0.60;;
40991;SDS011;29633;49.168;9.848;2023-09-19T08:27:03;1.15;;;0.60;;
40991;SDS011;29633;49.168;9.848;2023-09-19T08:29:31;1.17;;;0.50;;
40991;SDS011;29633;49.168;9.848;2023-09-19T08:31:57;0.85;;;0.50;;
40991;SDS011;29633;49.168;9.848;2023-09-19T08:34:23;1.58;;;0.47;;
40991;SDS011;29633;49.168;9.848;2023-09-19T08:36:50;1.02;;;0.50;;
40991;SDS011;29633;49.168;9.848;2023-09-19T08:39:23;1.38;;;0.57;;
40991;SDS011;29633;49.168;9.848;2023-09-19T08:41:56;0.63;;;0.45;;
40991;SDS011;29633;49.168;9.848;2023-09-19T08:44:24;0.90;;;0.50;;
40991;SDS011;29633;49.168;9.848;2023-09-19T08:46:50;1.02;;;0.50;;
40991;SDS011;29633;49.168;9.848;2023-09-19T08:49:27;0.82;;;0.40;;
40991;SDS011;29633;49.168;9.848;2023-09-19T08:52:10;1.15;;;0.50;;
40991;SDS011;29633;49.168;9.848;2023-09-19T08:54:51;1.50;;;0.40;;
40991;SDS011;29633;49.168;9.848;2023-09-19T08:57:22;2.65;;;0.38;;
40991;SDS011;29633;49.168;9.848;2023-09-19T08:59:48;1.70;;;0.40;;
40991;SDS011;29633;49.168;9.848;2023-09-19T09:02:16;0.30;;;0.30;;
40991;SDS011;29633;49.168;9.848;2023-09-19T09:04:44;0.88;;;0.30;;
40991;SDS011;29633;49.168;9.848;2023-09-19T09:07:12;0.77;;;0.40;;
40991;SDS011;29633;49.168;9.848;2023-09-19T09:09:39;0.85;;;0.40;;
40991;SDS011;29633;49.168;9.848;2023-09-19T09:12:12;2.60;;;0.50;;
40991;SDS011;29633;49.168;9.848;2023-09-19T09:14:40;4.60;;;0.77;;
40991;SDS011;29633;49.168;9.848;2023-09-19T09:17:10;0.77;;;0.32;;
40991;SDS011;29633;49.168;9.848;2023-09-19T09:19:37;1.90;;;0.40;;
40991;SDS011;29633;49.168;9.848;2023-09-19T09:22:11;0.45;;;0.30;;
40991;SDS011;29633;49.168;9.848;2023-09-19T09:24:37;1.20;;;0.28;;
40991;SDS011;29633;49.168;9.848;2023-09-19T09:27:19;1.95;;;0.35;;
40991;SDS011;29633;49.168;9.848;2023-09-19T09:29:46;2.40;;;0.57;;
40991;SDS011;29633;49.168;9.848;2023-09-19T09:34:48;2.40;;;0.55;;
40991;SDS011;29633;49.168;9.848;2023-09-19T09:37:19;1.98;;;0.77;;
40991;SDS011;29633;49.168;9.848;2023-09-19T09:39:55;1.02;;;0.50;;
40991;SDS011;29633;49.168;9.848;2023-09-19T09:42:30;2.38;;;0.50;;
40991;SDS011;29633;49.168;9.848;2023-09-19T09:47:44;1.17;;;0.60;;
40991;SDS011;29633;49.168;9.848;2023-09-19T09:50:36;0.55;;;0.32;;
40991;SDS011;29633;49.168;9.848;2023-09-19T09:53:26;1.42;;;0.50;;
40991;SDS011;29633;49.168;9.848;2023-09-19T09:56:05;1.83;;;0.55;;
40991;SDS011;29633;49.168;9.848;2023-09-19T09:58:35;0.60;;;0.45;;
40991;SDS011;29633;49.168;9.848;2023-09-19T10:01:13;1.67;;;0.55;;
40991;SDS011;29633;49.168;9.848;2023-09-19T10:03:41;1.30;;;0.52;;
40991;SDS011;29633;49.168;9.848;2023-09-19T10:06:15;1.58;;;0.40;;
40991;SDS011;29633;49.168;9.848;2023-09-19T10:11:43;0.93;;;0.40;;
40991;SDS011;29633;49.168;9.848;2023-09-19T10:14:12;1.23;;;0.60;;
40991;SDS011;29633;49.168;9.848;2023-09-19T10:16:50;1.40;;;0.60;;
40991;SDS011;29633;49.168;9.848;2023-09-19T10:22:24;1.95;;;0.40;;
40991;SDS011;29633;49.168;9.848;2023-09-19T10:24:53;1.75;;;0.43;;
40991;SDS011;29633;49.168;9.848;2023-09-19T10:27:20;1.00;;;0.47;;
40991;SDS011;29633;49.168;9.848;2023-09-19T10:29:51;0.83;;;0.40;;
40991;SDS011;29633;49.168;9.848;2023-09-19T10:32:22;0.73;;;0.40;;
40991;SDS011;29633;49.168;9.848;2023-09-19T10:34:50;2.28;;;0.45;;
40991;SDS011;29633;49.168;9.848;2023-09-19T10:37:20;0.90;;;0.40;;
40991;SDS011;29633;49.168;9.848;2023-09-19T10:39:50;1.70;;;0.45;;
40991;SDS011;29633;49.168;9.848;2023-09-19T10:42:19;0.70;;;0.50;;
40991;SDS011;29633;49.168;9.848;2023-09-19T10:44:47;0.90;;;0.40;;
40991;SDS011;29633;49.168;9.848;2023-09-19T10:47:18;0.80;;;0.50;;
40991;SDS011;29633;49.168;9.848;2023-09-19T10:49:49;1.70;;;0.50;;
40991;SDS011;29633;49.168;9.848;2023-09-19T10:52:15;1.85;;;0.40;;
40991;SDS011;29633;49.168;9.848;2023-09-19T10:54:48;1.00;;;0.50;;
40991;SDS011;29633;49.168;9.848;2023-09-19T10:57:21;1.17;;;0.50;;
40991;SDS011;29633;49.168;9.848;2023-09-19T11:00:04;2.42;;;0.60;;
40991;SDS011;29633;49.168;9.848;2023-09-19T11:06:05;1.60;;;0.50;;
40991;SDS011;29633;49.168;9.848;2023-09-19T11:11:47;3.20;;;0.52;;
40991;SDS011;29633;49.168;9.848;2023-09-19T11:30:41;2.50;;;0.60;;
40991;SDS011;29633;49.168;9.848;2023-09-19T11:33:18;1.00;;;0.52;;
40991;SDS011;29633;49.168;9.848;2023-09-19T11:36:07;1.45;;;0.55;;
40991;SDS011;29633;49.168;9.848;2023-09-19T11:46:33;1.55;;;0.50;;
40991;SDS011;29633;49.168;9.848;2023-09-19T11:49:16;1.30;;;0.52;;
40991;SDS011;29633;49.168;9.848;2023-09-19T11:51:48;1.05;;;0.50;;
40991;SDS011;29633;49.168;9.848;2023-09-19T11:54:19;0.67;;;0.40;;
40991;SDS011;29633;49.168;9.848;2023-09-19T11:56:49;1.10;;;0.50;;
40991;SDS011;29633;49.168;9.848;2023-09-19T11:59:23;0.95;;;0.50;;
40991;SDS011;29633;49.168;9.848;2023-09-19T12:01:54;1.00;;;0.47;;
40991;SDS011;29633;49.168;9.848;2023-09-19T12:04:34;0.90;;;0.60;;
40991;SDS011;29633;49.168;9.848;2023-09-19T12:09:37;0.70;;;0.40;;
40991;SDS011;29633;49.168;9.848;2023-09-19T12:12:26;1.08;;;0.43;;
40991;SDS011;29633;49.168;9.848;2023-09-19T12:14:52;0.57;;;0.40;;
40991;SDS011;29633;49.168;9.848;2023-09-19T12:17:19;1.50;;;0.60;;
40991;SDS011;29633;49.168;9.848;2023-09-19T12:19:55;3.05;;;0.60;;
40991;SDS011;29633;49.168;9.848;2023-09-19T12:22:22;1.05;;;0.50;;
40991;SDS011;29633;49.168;9.848;2023-09-19T12:24:48;0.80;;;0.43;;
40991;SDS011;29633;49.168;9.848;2023-09-19T12:27:15;2.20;;;0.40;;
40991;SDS011;29633;49.168;9.848;2023-09-19T12:29:48;0.77;;;0.40;;
40991;SDS011;29633;49.168;9.848;2023-09-19T12:32:15;0.65;;;0.50;;
40991;SDS011;29633;49.168;9.848;2023-09-19T12:34:51;1.27;;;0.38;;
40991;SDS011;29633;49.168;9.848;2023-09-19T12:37:19;1.55;;;0.63;;
40991;SDS011;29633;49.168;9.848;2023-09-19T12:39:53;1.50;;;0.55;;
40991;SDS011;29633;49.168;9.848;2023-09-19T12:42:46;0.95;;;0.40;;
40991;SDS011;29633;49.168;9.848;2023-09-19T12:45:12;1.15;;;0.50;;
40991;SDS011;29633;49.168;9.848;2023-09-19T12:47:40;2.00;;;0.40;;
40991;SDS011;29633;49.168;9.848;2023-09-19T12:53:35;2.50;;;0.47;;
40991;SDS011;29633;49.168;9.848;2023-09-19T12:56:07;1.10;;;0.60;;
40991;SDS011;29633;49.168;9.848;2023-09-19T12:58:56;1.00;;;0.50;;
40991;SDS011;29633;49.168;9.848;2023-09-19T13:01:26;1.15;;;0.50;;
40991;SDS011;29633;49.168;9.848;2023-09-19T13:06:47;0.90;;;0.40;;
40991;SDS011;29633;49.168;9.848;2023-09-19T13:09:22;0.90;;;0.50;;
40991;SDS011;29633;49.168;9.848;2023-09-19T13:11:59;1.67;;;0.50;;
40991;SDS011;29633;49.168;9.848;2023-09-19T13:14:28;0.82;;;0.47;;
40991;SDS011;29633;49.168;9.848;2023-09-19T13:17:06;0.77;;;0.43;;
40991;SDS011;29633;49.168;9.848;2023-09-19T13:19:48;0.77;;;0.50;;
40991;SDS011;29633;49.168;9.848;2023-09-19T13:22:36;0.98;;;0.50;;
40991;SDS011;29633;49.168;9.848;2023-09-19T13:25:14;2.72;;;0.47;;
40991;SDS011;29633;49.168;9.848;2023-09-19T13:28:01;1.45;;;0.50;;
40991;SDS011;29633;49.168;9.848;2023-09-19T13:30:30;0.73;;;0.47;;
40991;SDS011;29633;49.168;9.848;2023-09-19T13:33:05;0.57;;;0.40;;
40991;SDS011;29633;49.168;9.848;2023-09-19T13:35:36;2.05;;;0.50;;
40991;SDS011;29633;49.168;9.848;2023-09-19T13:38:05;0.70;;;0.40;;
40991;SDS011;29633;49.168;9.848;2023-09-19T13:40:34;1.30;;;0.40;;
40991;SDS011;29633;49.168;9.848;2023-09-19T13:43:00;1.33;;;0.50;;
40991;SDS011;29633;49.168;9.848;2023-09-19T13:45:26;1.10;;;0.47;;
40991;SDS011;29633;49.168;9.848;2023-09-19T13:47:55;0.73;;;0.50;;
40991;SDS011;29633;49.168;9.848;2023-09-19T13:50:21;2.35;;;0.68;;
40991;SDS011;29633;49.168;9.848;2023-09-19T13:52:53;1.17;;;0.50;;
40991;SDS011;29633;49.168;9.848;2023-09-19T13:55:19;0.95;;;0.50;;
40991;SDS011;29633;49.168;9.848;2023-09-19T13:57:49;0.90;;;0.40;;
40991;SDS011;29633;49.168;9.848;2023-09-19T14:02:43;3.88;;;0.50;;
40991;SDS011;29633;49.168;9.848;2023-09-19T14:05:13;1.02;;;0.40;;
40991;SDS011;29633;49.168;9.848;2023-09-19T14:07:41;2.45;;;0.40;;
40991;SDS011;29633;49.168;9.848;2023-09-19T14:10:11;4.45;;;0.70;;
40991;SDS011;29633;49.168;9.848;2023-09-19T14:12:37;0.98;;;0.50;;
40991;SDS011;29633;49.168;9.848;2023-09-19T14:15:05;0.50;;;0.40;;
40991;SDS011;29633;49.168;9.848;2023-09-19T14:17:33;0.60;;;0.40;;
40991;SDS011;29633;49.168;9.848;2023-09-19T14:19:59;1.02;;;0.43;;
40991;SDS011;29633;49.168;9.848;2023-09-19T14:22:24;0.95;;;0.50;;
40991;SDS011;29633;49.168;9.848;2023-09-19T14:24:50;0.70;;;0.40;;
40991;SDS011;29633;49.168;9.848;2023-09-19T14:27:17;0.82;;;0.43;;
40991;SDS011;29633;49.168;9.848;2023-09-19T14:29:43;0.70;;;0.50;;
40991;SDS011;29633;49.168;9.848;2023-09-19T14:32:09;1.33;;;0.47;;
40991;SDS011;29633;49.168;9.848;2023-09-19T14:34:35;1.63;;;0.50;;
40991;SDS011;29633;49.168;9.848;2023-09-19T14:37:06;2.50;;;0.50;;
40991;SDS011;29633;49.168;9.848;2023-09-19T14:39:36;0.70;;;0.40;;
40991;SDS011;29633;49.168;9.848;2023-09-19T14:42:03;0.50;;;0.47;;
40991;SDS011;29633;49.168;9.848;2023-09-19T14:44:29;1.58;;;0.40;;
40991;SDS011;29633;49.168;9.848;2023-09-19T14:46:55;1.30;;;0.50;;
40991;SDS011;29633;49.168;9.848;2023-09-19T14:49:21;0.70;;;0.40;;
40991;SDS011;29633;49.168;9.848;2023-09-19T14:51:47;1.20;;;0.50;;
40991;SDS011;29633;49.168;9.848;2023-09-19T14:54:13;0.60;;;0.50;;
40991;SDS011;29633;49.168;9.848;2023-09-19T14:56:41;0.95;;;0.60;;
40991;SDS011;29633;49.168;9.848;2023-09-19T14:59:08;1.52;;;0.70;;
40991;SDS011;29633;49.168;9.848;2023-09-19T15:01:35;1.15;;;0.50;;
40991;SDS011;29633;49.168;9.848;2023-09-19T15:04:02;1.27;;;0.60;;
40991;SDS011;29633;49.168;9.848;2023-09-19T15:06:28;0.98;;;0.50;;
40991;SDS011;29633;49.168;9.848;2023-09-19T15:08:55;3.58;;;0.50;;
40991;SDS011;29633;49.168;9.848;2023-09-19T15:11:20;0.80;;;0.50;;
40991;SDS011;29633;49.168;9.848;2023-09-19T15:13:47;0.82;;;0.50;;
40991;SDS011;29633;49.168;9.848;2023-09-19T15:16:17;0.70;;;0.50;;
40991;SDS011;29633;49.168;9.848;2023-09-19T15:18:45;0.50;;;0.40;;
40991;SDS011;29633;49.168;9.848;2023-09-19T15:21:14;0.95;;;0.50;;
40991;SDS011;29633;49.168;9.848;2023-09-19T15:23:41;0.70;;;0.40;;
40991;SDS011;29633;49.168;9.848;2023-09-19T15:26:09;0.73;;;0.40;;
40991;SDS011;29633;49.168;9.848;2023-09-19T15:28:37;1.10;;;0.55;;
40991;SDS011;29633;49.168;9.848;2023-09-19T15:31:04;1.10;;;0.60;;
40991;SDS011;29633;49.168;9.848;2023-09-19T15:33:36;0.82;;;0.40;;
40991;SDS011;29633;49.168;9.848;2023-09-19T15:36:09;1.75;;;0.50;;
40991;SDS011;29633;49.168;9.848;2023-09-19T15:38:56;0.75;;;0.50;;
40991;SDS011;29633;49.168;9.848;2023-09-19T15:41:33;2.17;;;0.50;;
40991;SDS011;29633;49.168;9.848;2023-09-19T15:44:10;1.08;;;0.50;;
40991;SDS011;29633;49.168;9.848;2023-09-19T15:46:41;0.70;;;0.50;;
40991;SDS011;29633;49.168;9.848;2023-09-19T15:49:07;0.50;;;0.40;;
40991;SDS011;29633;49.168;9.848;2023-09-19T15:51:33;1.30;;;0.60;;
40991;SDS011;29633;49.168;9.848;2023-09-19T15:54:01;0.93;;;0.43;;
40991;SDS011;29633;49.168;9.848;2023-09-19T15:56:41;1.00;;;0.60;;
40991;SDS011;29633;49.168;9.848;2023-09-19T15:59:10;51.90;;;30.42;;
40991;SDS011;29633;49.168;9.848;2023-09-19T16:01:39;28.42;;;22.45;;
40991;SDS011;29633;49.168;9.848;2023-09-19T16:04:07;7.53;;;6.75;;
40991;SDS011;29633;49.168;9.848;2023-09-19T16:06:34;4.72;;;2.80;;
40991;SDS011;29633;49.168;9.848;2023-09-19T16:09:02;1.50;;;1.02;;
40991;SDS011;29633;49.168;9.848;2023-09-19T16:11:29;8.55;;;4.57;;
40991;SDS011;29633;49.168;9.848;2023-09-19T16:13:58;8.98;;;3.28;;
40991;SDS011;29633;49.168;9.848;2023-09-19T16:16:25;3.47;;;1.70;;
40991;SDS011;29633;49.168;9.848;2023-09-19T16:18:58;24.98;;;10.73;;
40991;SDS011;29633;49.168;9.848;2023-09-19T16:21:28;67.97;;;29.27;;
40991;SDS011;29633;49.168;9.848;2023-09-19T16:23:55;28.50;;;15.80;;
40991;SDS011;29633;49.168;9.848;2023-09-19T16:26:23;7.47;;;4.75;;
40991;SDS011;29633;49.168;9.848;2023-09-19T16:28:54;2.42;;;1.92;;